ADDS METAR Data INFO
IDs: Format: Raw Decoded Include TAF

Data at: 1849 UTC 16 Dec 2017

KGWO 161753Z AUTO 21004KT 10SM CLR 11/M01 A3025 RMK AO2 SLP244 T01111006 10117 21028 58017
KGWO 161653Z AUTO 20007KT 10SM CLR 10/M01 A3029 RMK AO2 SLP258 T01001006
KGWO 161553Z AUTO 19006KT 10SM CLR 08/00 A3031 RMK AO2 SLP263 T00780000
KGWO 161453Z AUTO 00000KT 10SM CLR 04/00 A3030 RMK AO2 SLP261 T00390000 50011
KGWO 161353Z AUTO 00000KT 10SM CLR M01/M03 A3030 RMK AO2 SLP261 T10111028
KGWO 161253Z AUTO 00000KT 10SM CLR M03/M04 A3028 RMK AO2 SLP256 T10281039
KGWO 161153Z AUTO 00000KT 10SM CLR M03/M04 A3027 RMK AO2 SLP250 T10281044 11011 21033 53003
KGWO 161053Z AUTO 00000KT 10SM CLR M03/M04 A3025 RMK AO2 SLP245 T10331039
KGWO 160953Z AUTO 00000KT 10SM CLR M03/M04 A3025 RMK AO2 SLP246 T10281044
KGWO 160853Z AUTO 00000KT 10SM CLR M02/M04 A3026 RMK AO2 SLP247 T10221039 56002
KGWO 160753Z AUTO 00000KT 10SM CLR M02/M03 A3026 RMK AO2 SLP248 T10171033
KGWO 160653Z AUTO 21003KT 10SM CLR M01/M03 A3026 RMK AO2 SLP247 T10111028
KGWO 160553Z AUTO 00000KT 10SM CLR M02/M04 A3026 RMK AO2 SLP249 T10171039 10039 21022 400781028 50001
KGWO 160453Z AUTO 17003KT 10SM CLR M02/M03 A3027 RMK AO2 SLP250 T10171033
KGWO 160353Z AUTO 00000KT 10SM CLR M01/M04 A3027 RMK AO2 SLP250 T10111039
KGWO 160253Z AUTO 18003KT 10SM CLR M01/M03 A3026 RMK AO2 SLP248 T10061028 53008
KGWO 160153Z AUTO 00000KT 10SM CLR 00/M03 A3024 RMK AO2 SLP242 T00001028
KGWO 160053Z AUTO 00000KT 10SM CLR 01/M03 A3025 RMK AO2 SLP245 T00111028
KGWO 152353Z AUTO 00000KT 10SM CLR 04/M02 A3024 RMK AO2 SLP240 T00391017 10078 20033 51006
KGWO 152253Z AUTO 00000KT 10SM CLR 05/M04 A3023 RMK AO2 SLP238 T00501039
KGWO 152153Z AUTO 00000KT 10SM CLR 07/M04 A3023 RMK AO2 SLP237 T00721039
KGWO 152053Z AUTO 10004KT 10SM CLR 07/M04 A3022 RMK AO2 SLP234 T00721039 56017
KGWO 151953Z AUTO VRB03KT 10SM CLR 07/M04 A3023 RMK AO2 SLP237 T00721039
KGWO 151853Z AUTO VRB03KT 10SM CLR 07/M04 A3025 RMK AO2 SLP243 T00671039
KGWO 151753Z AUTO 01004KT 10SM CLR 06/M04 A3027 RMK AO2 SLP251 T00561039 10061 21017 50006
KGWO 151653Z AUTO 35005KT 10SM CLR 06/M03 A3029 RMK AO2 SLP259 T00561028
KGWO 151553Z AUTO 00000KT 10SM CLR 04/M01 A3029 RMK AO2 SLP259 T00391006
KGWO 151453Z AUTO 00000KT 10SM CLR 02/M01 A3025 RMK AO2 SLP245 T00171011 51019
KGWO 151353Z AUTO 00000KT 10SM CLR 00/M01 A3023 RMK AO2 SLP236 T00001011
KGWO 151253Z AUTO 00000KT 10SM CLR M01/M02 A3023 RMK AO2 SLP238 T10111022
KGWO 151153Z AUTO 00000KT 10SM CLR M02/M02 A3020 RMK AO2 SLP226 T10171022 10028 21028 53013
KGWO 151053Z AUTO 00000KT 10SM CLR M02/M02 A3016 RMK AO2 SLP214 T10171022
KGWO 150953Z AUTO 00000KT 10SM CLR M02/M03 A3016 RMK AO2 SLP214 T10221033
KGWO 150853Z AUTO 00000KT 10SM CLR M01/M03 A3016 RMK AO2 SLP213 T10061028 53011
KGWO 150753Z AUTO 00000KT 10SM CLR 00/M02 A3014 RMK AO2 SLP206 T00001017
KGWO 150653Z AUTO 33003KT 10SM CLR 00/M03 A3013 RMK AO2 SLP202 T00001028